RJSF/FKS METAR and TAF weather

Enter ICAO airport designator
Station Type Date Time Source
RJSF METAR 2021/02/27 04:00 UTC NOAA

RJSF 270400Z 32013KT 280V350 9999 FEW030 SCT040 BKN050 01/M09 Q1026


Station Type Date Time Source
RJSF Decoded METAR 2021/02/27 04:00 UTC NOAA

Fukushima Airport, Japan (RJSF) 37-14N 140-26E 375M
Feb 26, 2021 - 11:00 PM EST / 2021.02.27 0400 UTC
Wind: from the NW (320 degrees) at 15 MPH (13 KT) (direction variable):0
Visibility: greater than 7 mile(s):0
Sky conditions: mostly cloudy
Temperature: 33 F (1 C)
Windchill: 23 F (-5 C):1
Dew Point: 15 F (-9 C)
Relative Humidity: 47%
Pressure (altimeter): 30.30 in. Hg (1026 hPa)
ob: RJSF 270400Z 32013KT 280V350 9999 FEW030 SCT040 BKN050 01/M09 Q1026
cycle: 4

Station Type Date Time Source
RJSF TAF 2021/02/26 18:29 UTC NOAA

TAF RJSF 261711Z 2618/2800 35010KT 9999 FEW020 BKN040
TEMPO 2618/2621 3000 -SHSN
BECMG 2715/2718 14004KT

Example: see airport list